createdAt,value
2023-05-19T00:01:29.099Z,75.77
2023-05-19T00:04:05.118Z,75.56
2023-05-19T00:06:35.898Z,76.56
2023-05-19T00:09:13.184Z,75.91
2023-05-19T00:11:40.384Z,76.33
2023-05-19T00:14:07.779Z,76.09
2023-05-19T00:16:36.220Z,76.11
2023-05-19T00:19:04.548Z,76.50
2023-05-19T00:21:32.147Z,76.46
2023-05-19T00:23:59.003Z,77.35
2023-05-19T00:26:27.090Z,75.88
2023-05-19T00:29:02.359Z,76.33
2023-05-19T00:31:29.111Z,76.25
2023-05-19T00:33:55.849Z,75.40
2023-05-19T00:36:22.683Z,75.52
2023-05-19T00:38:49.387Z,75.02
2023-05-19T00:41:15.992Z,75.28
2023-05-19T00:43:42.865Z,75.27
2023-05-19T00:46:10.954Z,75.90
2023-05-19T00:48:37.841Z,76.75
2023-05-19T00:51:06.570Z,76.56
2023-05-19T00:53:36.031Z,75.87
2023-05-19T00:56:03.361Z,75.61
2023-05-19T00:58:33.882Z,75.68
2023-05-19T01:01:05.205Z,75.07
2023-05-19T01:03:35.215Z,76.02
2023-05-19T01:06:05.404Z,75.25
2023-05-19T01:08:33.240Z,76.08
2023-05-19T01:11:00.487Z,75.37
2023-05-19T01:13:27.215Z,76.08
2023-05-19T01:16:09.039Z,76.31
2023-05-19T01:18:39.434Z,76.12
2023-05-19T01:21:36.299Z,75.77
2023-05-19T01:24:22.998Z,76.47
2023-05-19T01:27:42.036Z,76.07
2023-05-19T01:30:30.010Z,76.74
2023-05-19T01:33:00.543Z,75.96
2023-05-19T01:35:28.254Z,75.35
2023-05-19T01:37:59.679Z,77.20
2023-05-19T01:40:27.813Z,77.08
2023-05-19T01:42:57.866Z,77.87
2023-05-19T01:45:28.660Z,77.64
2023-05-19T01:47:58.497Z,76.60
2023-05-19T01:50:25.995Z,76.92
2023-05-19T01:52:53.178Z,76.33
2023-05-19T01:55:21.379Z,77.60
2023-05-19T01:58:19.488Z,77.86
2023-05-19T02:00:58.518Z,76.65
2023-05-19T02:04:03.266Z,77.53
2023-05-19T02:06:37.419Z,77.47
2023-05-19T02:09:25.694Z,77.05
2023-05-19T02:11:54.612Z,78.22
2023-05-19T02:14:27.353Z,77.25
2023-05-19T02:16:54.104Z,76.66
2023-05-19T02:19:26.877Z,76.87
2023-05-19T02:21:58.414Z,77.72
2023-05-19T02:24:25.468Z,76.88
2023-05-19T02:26:52.986Z,77.85
2023-05-19T02:29:20.673Z,78.38
2023-05-19T02:31:48.002Z,78.01
2023-05-19T02:34:14.858Z,78.30
2023-05-19T02:36:49.783Z,78.41
2023-05-19T02:39:16.757Z,77.86
2023-05-19T02:41:43.382Z,78.58
2023-05-19T02:44:10.129Z,78.46
2023-05-19T02:46:37.050Z,77.60
2023-05-19T02:49:03.768Z,78.06
2023-05-19T02:51:30.514Z,77.71
2023-05-19T02:53:57.202Z,77.80
2023-05-19T02:56:26.524Z,77.91
2023-05-19T02:58:53.273Z,77.79
2023-05-19T03:01:22.107Z,77.20
2023-05-19T03:03:49.079Z,77.53
2023-05-19T03:06:18.769Z,77.77
2023-05-19T03:08:45.453Z,77.84
2023-05-19T03:11:12.134Z,77.02
2023-05-19T03:13:38.949Z,76.57
2023-05-19T03:16:08.334Z,75.58
2023-05-19T03:18:35.241Z,74.94
2023-05-19T03:21:01.940Z,75.32
2023-05-19T03:23:28.625Z,76.49
2023-05-19T03:25:56.317Z,75.39
2023-05-19T03:28:23.459Z,76.11
2023-05-19T03:30:50.835Z,75.87
2023-05-19T03:33:20.855Z,76.38
2023-05-19T03:35:47.878Z,76.67
2023-05-19T03:38:15.475Z,77.79
2023-05-19T03:40:49.545Z,76.92
2023-05-19T03:43:16.307Z,76.53
2023-05-19T03:45:51.911Z,74.88
2023-05-19T03:48:38.581Z,74.53
2023-05-19T03:51:29.934Z,74.74
2023-05-19T03:54:05.344Z,74.79
2023-05-19T03:56:32.943Z,75.21
2023-05-19T03:59:00.286Z,75.64
2023-05-19T04:01:26.984Z,74.64
2023-05-19T04:03:53.638Z,75.03
2023-05-19T04:06:20.423Z,75.42
2023-05-19T04:08:47.127Z,74.78
2023-05-19T04:11:13.861Z,74.92
2023-05-19T04:13:40.509Z,73.80
2023-05-19T04:16:07.593Z,73.71
2023-05-19T04:18:34.181Z,74.14
2023-05-19T04:21:01.743Z,74.01
2023-05-19T04:23:28.391Z,73.86
2023-05-19T04:25:57.061Z,73.28
2023-05-19T04:28:24.177Z,72.76
2023-05-19T04:30:51.772Z,72.87
2023-05-19T04:33:20.158Z,73.39
2023-05-19T04:35:47.136Z,72.45
2023-05-19T04:38:18.833Z,73.01
2023-05-19T04:40:50.090Z,72.09
2023-05-19T04:43:18.024Z,72.46
2023-05-19T04:45:44.913Z,70.68
2023-05-19T04:48:12.350Z,70.86
2023-05-19T04:50:42.198Z,70.17
2023-05-19T04:53:09.704Z,70.48
2023-05-19T04:55:38.602Z,70.10
2023-05-19T04:58:06.516Z,69.23
2023-05-19T05:00:35.791Z,67.99
2023-05-19T05:03:06.385Z,67.91
2023-05-19T05:05:35.024Z,68.96
2023-05-19T05:08:01.729Z,68.96
2023-05-19T05:10:32.654Z,69.71
2023-05-19T05:13:00.824Z,68.46
2023-05-19T05:15:29.920Z,69.89
2023-05-19T05:17:59.398Z,68.34
2023-05-19T05:20:26.671Z,67.76
2023-05-19T05:22:54.012Z,67.19
2023-05-19T05:25:21.933Z,68.57
2023-05-19T05:27:49.011Z,68.53
2023-05-19T05:30:15.930Z,68.15
2023-05-19T05:32:42.790Z,68.08
2023-05-19T05:35:19.147Z,68.32
2023-05-19T05:37:45.909Z,67.62
2023-05-19T05:40:13.127Z,68.81
2023-05-19T05:42:39.974Z,66.83
2023-05-19T05:45:07.480Z,68.15
2023-05-19T05:47:38.409Z,68.56
2023-05-19T05:50:06.939Z,66.36
2023-05-19T05:52:34.030Z,66.65
2023-05-19T05:55:01.588Z,64.89
2023-05-19T05:57:30.740Z,65.74
2023-05-19T05:59:57.877Z,65.57
2023-05-19T06:02:24.787Z,65.89
2023-05-19T06:04:51.552Z,64.40
2023-05-19T06:07:18.636Z,64.35
2023-05-19T06:09:45.280Z,64.88
2023-05-19T06:12:12.002Z,63.40
2023-05-19T06:14:44.069Z,63.60
2023-05-19T06:17:10.964Z,64.83
2023-05-19T06:19:37.710Z,63.97
2023-05-19T06:22:04.457Z,63.51
2023-05-19T06:24:31.467Z,63.12
2023-05-19T06:26:58.831Z,62.09
2023-05-19T06:29:25.438Z,62.18
2023-05-19T06:31:54.178Z,62.23
2023-05-19T06:34:21.353Z,63.33
2023-05-19T06:36:48.167Z,63.48
2023-05-19T06:39:16.253Z,61.64
2023-05-19T06:41:43.298Z,62.51
2023-05-19T06:44:25.183Z,61.73
2023-05-19T06:46:51.892Z,60.03
2023-05-19T06:49:19.293Z,60.56
2023-05-19T06:51:47.805Z,62.38
2023-05-19T06:54:16.367Z,61.54
2023-05-19T06:56:43.198Z,61.96
2023-05-19T06:59:10.430Z,61.74
2023-05-19T07:01:38.075Z,62.00
2023-05-19T07:04:05.121Z,61.65
2023-05-19T07:06:31.830Z,61.13
2023-05-19T07:08:58.518Z,60.54
2023-05-19T07:11:26.556Z,61.30
2023-05-19T07:13:53.832Z,60.50
2023-05-19T07:16:26.370Z,61.44
2023-05-19T07:18:54.996Z,61.85
2023-05-19T07:21:21.809Z,61.50
2023-05-19T07:23:50.297Z,60.56
2023-05-19T07:26:19.950Z,61.71
2023-05-19T07:28:46.621Z,60.67
2023-05-19T07:31:13.390Z,62.07
2023-05-19T07:33:40.824Z,60.27
2023-05-19T07:36:07.800Z,58.94
2023-05-19T07:38:34.896Z,59.32
2023-05-19T07:41:01.860Z,58.96
2023-05-19T07:43:28.720Z,56.94
2023-05-19T07:45:56.384Z,56.57
2023-05-19T07:48:25.591Z,56.60
2023-05-19T07:50:52.972Z,56.68
2023-05-19T07:53:20.030Z,55.26
2023-05-19T07:55:46.810Z,55.01
2023-05-19T07:58:13.442Z,54.55
2023-05-19T08:00:46.359Z,53.77
2023-05-19T08:03:13.798Z,55.05
2023-05-19T08:05:40.632Z,52.80
2023-05-19T08:08:07.678Z,53.78
2023-05-19T08:10:34.682Z,54.71
2023-05-19T08:13:01.512Z,52.61
2023-05-19T08:15:28.264Z,54.23
2023-05-19T08:17:55.212Z,53.20
2023-05-19T08:20:22.917Z,53.48
2023-05-19T08:22:49.787Z,52.48
2023-05-19T08:25:16.754Z,54.27
2023-05-19T08:27:43.443Z,55.31
2023-05-19T08:30:10.684Z,54.50
2023-05-19T08:32:37.288Z,54.50
2023-05-19T08:35:04.435Z,53.58
2023-05-19T08:37:32.611Z,54.11
2023-05-19T08:40:00.867Z,56.01
2023-05-19T08:42:27.650Z,55.25
2023-05-19T08:44:56.635Z,54.03
2023-05-19T08:47:23.430Z,54.56
2023-05-19T08:49:52.917Z,55.36
2023-05-19T08:52:41.116Z,54.81
2023-05-19T08:55:26.013Z,56.91
2023-05-19T08:57:52.913Z,55.72
2023-05-19T09:00:21.041Z,54.92
2023-05-19T09:03:01.086Z,56.92
2023-05-19T09:05:33.447Z,56.13
2023-05-19T09:08:02.713Z,56.09
2023-05-19T09:10:29.532Z,56.04
2023-05-19T09:12:56.259Z,55.97
2023-05-19T09:15:26.905Z,54.38
2023-05-19T09:18:07.133Z,55.79
2023-05-19T09:20:37.517Z,55.33
2023-05-19T09:23:04.244Z,55.03
2023-05-19T09:25:32.282Z,56.17
2023-05-19T09:27:59.183Z,55.59
2023-05-19T09:30:26.191Z,53.51
2023-05-19T09:32:52.860Z,54.68
2023-05-19T09:35:21.889Z,53.71
2023-05-19T09:37:48.545Z,54.79
2023-05-19T09:40:15.797Z,54.84
2023-05-19T09:42:43.167Z,55.78
2023-05-19T09:45:10.113Z,54.57
2023-05-19T09:47:38.373Z,53.87
2023-05-19T09:50:08.002Z,55.69
2023-05-19T09:52:44.237Z,53.33
2023-05-19T09:55:12.733Z,52.42
2023-05-19T09:57:40.714Z,52.57
2023-05-19T10:00:12.765Z,53.41
2023-05-19T10:02:44.144Z,53.86
2023-05-19T10:05:20.192Z,55.15
2023-05-19T10:07:48.623Z,55.63
2023-05-19T10:10:15.810Z,53.44
2023-05-19T10:12:42.342Z,52.81
2023-05-19T10:15:11.378Z,52.87
2023-05-19T10:17:42.154Z,52.43
2023-05-19T10:20:12.811Z,52.24
2023-05-19T10:22:40.185Z,51.57
2023-05-19T10:25:07.827Z,53.98
2023-05-19T10:27:36.982Z,55.26
2023-05-19T10:30:16.527Z,54.10
2023-05-19T10:32:45.090Z,53.15
2023-05-19T10:35:50.458Z,52.87
2023-05-19T10:38:26.341Z,52.74
2023-05-19T10:41:17.950Z,51.52
2023-05-19T10:44:15.694Z,52.40
2023-05-19T10:46:43.062Z,52.15
2023-05-19T10:49:20.784Z,53.78
2023-05-19T10:51:47.336Z,52.95
2023-05-19T10:54:16.499Z,52.68
2023-05-19T10:56:47.200Z,51.40
2023-05-19T10:59:34.157Z,51.57
2023-05-19T11:02:04.357Z,52.08
2023-05-19T11:04:54.029Z,51.45
2023-05-19T11:07:21.814Z,50.48
2023-05-19T11:09:52.357Z,50.19
2023-05-19T11:12:24.710Z,50.88
2023-05-19T11:14:55.785Z,49.74
2023-05-19T11:17:24.920Z,50.16
2023-05-19T11:19:56.102Z,49.40
2023-05-19T11:22:25.765Z,51.70
2023-05-19T11:24:54.812Z,50.16
2023-05-19T11:27:21.351Z,49.94
2023-05-19T11:29:48.665Z,49.83
2023-05-19T11:32:15.882Z,49.45
2023-05-19T11:34:44.483Z,49.42
2023-05-19T11:37:11.427Z,48.44
2023-05-19T11:39:39.573Z,49.30
2023-05-19T11:42:06.534Z,49.06
2023-05-19T11:44:33.275Z,48.76
2023-05-19T11:47:04.360Z,48.38
2023-05-19T11:49:31.111Z,47.21
2023-05-19T11:51:58.060Z,48.16
2023-05-19T11:54:32.912Z,49.14
2023-05-19T11:57:02.753Z,49.30
2023-05-19T11:59:37.758Z,47.81
2023-05-19T12:02:16.944Z,47.77
2023-05-19T12:04:43.747Z,46.54
2023-05-19T12:07:17.469Z,46.90
2023-05-19T12:09:46.002Z,46.63
2023-05-19T12:12:24.979Z,47.35
2023-05-19T12:14:52.395Z,46.38
2023-05-19T12:17:20.327Z,46.88
2023-05-19T12:19:48.420Z,46.35
2023-05-19T12:22:16.246Z,46.06
2023-05-19T12:24:44.371Z,43.85
2023-05-19T12:27:19.556Z,46.92
2023-05-19T12:29:54.450Z,44.53
2023-05-19T12:32:25.528Z,46.35
2023-05-19T12:34:53.117Z,45.93
2023-05-19T12:37:19.884Z,44.92
2023-05-19T12:39:48.688Z,46.47
2023-05-19T12:42:16.159Z,45.33
2023-05-19T12:44:46.772Z,44.26
2023-05-19T12:47:17.467Z,44.91
2023-05-19T12:49:59.334Z,44.28
2023-05-19T12:52:27.714Z,43.67
2023-05-19T12:55:07.744Z,43.42
2023-05-19T12:57:35.681Z,43.32
2023-05-19T13:00:25.174Z,43.25
2023-05-19T13:03:02.200Z,42.96
2023-05-19T13:05:30.280Z,42.81
2023-05-19T13:08:01.956Z,43.50
2023-05-19T13:10:29.753Z,42.81
2023-05-19T13:12:57.219Z,43.07
2023-05-19T13:15:26.173Z,43.29
2023-05-19T13:17:56.389Z,42.10
2023-05-19T13:20:25.603Z,41.54
2023-05-19T13:22:53.692Z,41.11
2023-05-19T13:25:21.366Z,40.86
2023-05-19T13:27:48.629Z,42.04
2023-05-19T13:30:16.167Z,41.15
2023-05-19T13:32:42.802Z,42.94
2023-05-19T13:35:10.356Z,41.48
2023-05-19T13:37:37.062Z,42.89
2023-05-19T13:40:03.866Z,42.48
2023-05-19T13:42:32.058Z,43.20
2023-05-19T13:44:58.870Z,43.81
2023-05-19T13:47:25.776Z,43.34
2023-05-19T13:49:52.687Z,44.75
2023-05-19T13:52:21.009Z,43.27
2023-05-19T13:54:48.854Z,42.14
2023-05-19T13:57:16.391Z,42.60
2023-05-19T14:00:00.279Z,42.22
2023-05-19T14:02:39.307Z,43.04
2023-05-19T14:05:07.028Z,42.59
2023-05-19T14:07:34.975Z,40.83
2023-05-19T14:10:06.643Z,42.05
2023-05-19T14:12:47.017Z,43.17
2023-05-19T14:15:20.463Z,43.65
2023-05-19T14:17:48.954Z,44.25
2023-05-19T14:20:15.821Z,43.75
2023-05-19T14:22:42.378Z,42.89
2023-05-19T14:25:09.126Z,44.54
2023-05-19T14:27:35.954Z,42.39
2023-05-19T14:30:02.763Z,43.11
2023-05-19T14:32:30.657Z,43.40
2023-05-19T14:34:57.521Z,43.22
2023-05-19T14:37:26.604Z,43.94
2023-05-19T14:39:53.349Z,42.66
2023-05-19T14:42:19.980Z,42.92
2023-05-19T14:44:46.830Z,41.85
2023-05-19T14:47:13.498Z,43.15
2023-05-19T14:49:40.208Z,42.62
2023-05-19T14:52:07.118Z,42.78
2023-05-19T14:54:34.056Z,42.97
2023-05-19T14:57:01.536Z,42.46
2023-05-19T14:59:30.604Z,43.20
2023-05-19T15:01:57.243Z,42.46
2023-05-19T15:04:23.951Z,44.79
2023-05-19T15:07:05.905Z,43.44
2023-05-19T15:09:36.668Z,42.88
2023-05-19T15:12:03.604Z,43.74
2023-05-19T15:14:30.972Z,43.92
2023-05-19T15:16:59.521Z,44.01
2023-05-19T15:19:26.600Z,45.48
2023-05-19T15:21:53.595Z,45.39
2023-05-19T15:24:20.531Z,43.65
2023-05-19T15:26:47.698Z,43.73
2023-05-19T15:29:14.409Z,45.04
2023-05-19T15:31:41.480Z,45.01
2023-05-19T15:34:08.352Z,46.12
2023-05-19T15:36:35.055Z,45.21
2023-05-19T15:39:01.710Z,43.59
2023-05-19T15:41:28.399Z,45.24
2023-05-19T15:43:55.113Z,45.35
2023-05-19T15:46:22.305Z,45.65
2023-05-19T15:48:48.930Z,46.69
2023-05-19T15:51:16.085Z,45.83
2023-05-19T15:53:42.823Z,45.73
2023-05-19T15:56:09.548Z,45.46
2023-05-19T15:58:36.193Z,45.56
2023-05-19T16:01:03.164Z,46.90
2023-05-19T16:03:30.055Z,47.21
2023-05-19T16:05:57.073Z,47.26
2023-05-19T16:08:23.825Z,47.08
2023-05-19T16:10:50.606Z,47.65
2023-05-19T16:13:17.290Z,46.15
2023-05-19T16:15:43.918Z,47.96
2023-05-19T16:18:11.528Z,47.96
2023-05-19T16:20:38.431Z,45.94
2023-05-19T16:23:05.123Z,46.92
2023-05-19T16:25:31.792Z,46.39
2023-05-19T16:27:58.505Z,45.64
2023-05-19T16:30:26.423Z,44.94
2023-05-19T16:32:54.321Z,45.30
2023-05-19T16:35:21.654Z,46.46
2023-05-19T16:37:48.622Z,46.50
2023-05-19T16:40:15.433Z,45.81
2023-05-19T16:42:42.093Z,46.50
2023-05-19T16:45:09.353Z,46.16
2023-05-19T16:47:36.116Z,47.15
2023-05-19T16:50:03.731Z,47.79
2023-05-19T16:52:30.503Z,47.84
2023-05-19T16:54:57.310Z,47.84
2023-05-19T16:57:24.124Z,47.86
2023-05-19T16:59:51.049Z,48.89
2023-05-19T17:02:17.690Z,48.62
2023-05-19T17:04:44.337Z,49.07
2023-05-19T17:07:15.705Z,49.47
2023-05-19T17:09:43.092Z,49.40
2023-05-19T17:12:09.912Z,49.69
2023-05-19T17:14:36.758Z,49.44
2023-05-19T17:17:03.489Z,50.17
2023-05-19T17:19:30.206Z,49.20
2023-05-19T17:21:56.903Z,50.36
2023-05-19T17:24:23.598Z,50.63
2023-05-19T17:26:50.192Z,49.46
2023-05-19T17:29:16.825Z,49.92
2023-05-19T17:31:43.965Z,51.08
2023-05-19T17:34:10.647Z,50.81
2023-05-19T17:36:37.274Z,51.12
2023-05-19T17:39:04.112Z,51.82
2023-05-19T17:41:30.957Z,51.46
2023-05-19T17:43:57.592Z,52.52
2023-05-19T17:46:24.267Z,52.10
2023-05-19T17:48:50.944Z,51.92
2023-05-19T17:51:17.814Z,52.18
2023-05-19T17:53:45.429Z,53.27
2023-05-19T17:56:12.800Z,52.70
2023-05-19T17:58:41.273Z,52.69
2023-05-19T18:01:08.574Z,53.06
2023-05-19T18:03:35.598Z,53.35
2023-05-19T18:06:02.426Z,53.34
2023-05-19T18:08:30.877Z,54.79
2023-05-19T18:10:58.286Z,54.33
2023-05-19T18:13:26.077Z,54.89
2023-05-19T18:15:52.868Z,54.51
2023-05-19T18:18:19.864Z,54.83
2023-05-19T18:20:46.651Z,54.70
2023-05-19T18:23:13.455Z,54.31
2023-05-19T18:25:40.111Z,54.66
2023-05-19T18:28:07.083Z,55.08
2023-05-19T18:30:33.976Z,55.06
2023-05-19T18:33:03.765Z,55.88
2023-05-19T18:35:31.291Z,54.40
2023-05-19T18:37:58.087Z,55.06
2023-05-19T18:40:24.796Z,56.04
2023-05-19T18:42:51.496Z,53.53
2023-05-19T18:45:18.448Z,55.07
2023-05-19T18:47:45.114Z,55.69
2023-05-19T18:50:11.780Z,55.47
2023-05-19T18:52:38.402Z,56.03
2023-05-19T18:55:05.634Z,55.10
2023-05-19T18:57:33.413Z,54.15
2023-05-19T19:00:00.098Z,54.50
2023-05-19T19:02:27.039Z,54.82
2023-05-19T19:04:53.747Z,55.17
2023-05-19T19:07:20.465Z,56.02
2023-05-19T19:09:47.070Z,55.63
2023-05-19T19:12:13.770Z,54.97
2023-05-19T19:14:40.430Z,55.57
2023-05-19T19:17:07.289Z,55.42
2023-05-19T19:19:34.108Z,56.28
2023-05-19T19:22:01.053Z,57.13
2023-05-19T19:24:28.445Z,55.36
2023-05-19T19:26:55.137Z,56.98
2023-05-19T19:29:22.202Z,57.58
2023-05-19T19:31:48.947Z,56.40
2023-05-19T19:34:15.961Z,57.63
2023-05-19T19:36:42.661Z,57.33
2023-05-19T19:39:09.525Z,58.59
2023-05-19T19:41:36.694Z,57.36
2023-05-19T19:44:03.599Z,58.84
2023-05-19T19:46:30.364Z,57.77
2023-05-19T19:49:00.602Z,56.46
2023-05-19T19:51:28.270Z,58.32
2023-05-19T19:53:54.936Z,57.67
2023-05-19T19:56:24.588Z,57.53
2023-05-19T19:58:51.237Z,57.35
2023-05-19T20:01:20.369Z,58.23
2023-05-19T20:03:48.113Z,56.88
2023-05-19T20:06:15.376Z,58.67
2023-05-19T20:08:41.928Z,59.58
2023-05-19T20:11:10.918Z,59.36
2023-05-19T20:13:37.577Z,59.15
2023-05-19T20:16:04.592Z,59.79
2023-05-19T20:18:31.156Z,60.43
2023-05-19T20:20:57.879Z,59.87
2023-05-19T20:23:24.608Z,59.75
2023-05-19T20:26:10.292Z,60.71
2023-05-19T20:28:38.074Z,61.57
2023-05-19T20:31:05.147Z,61.26
2023-05-19T20:33:32.022Z,62.09
2023-05-19T20:35:58.631Z,62.71
2023-05-19T20:38:25.317Z,63.29
2023-05-19T20:40:52.624Z,63.39
2023-05-19T20:43:19.387Z,61.79
2023-05-19T20:45:46.480Z,63.73
2023-05-19T20:48:16.396Z,63.77
2023-05-19T20:50:43.171Z,63.77
2023-05-19T20:53:10.068Z,64.09
2023-05-19T20:55:38.289Z,64.34
2023-05-19T20:58:05.183Z,62.97
2023-05-19T21:00:32.436Z,64.40
2023-05-19T21:02:59.446Z,63.95
2023-05-19T21:05:26.290Z,64.51
2023-05-19T21:07:52.923Z,63.45
2023-05-19T21:10:19.507Z,64.47
2023-05-19T21:12:47.653Z,64.70
2023-05-19T21:15:14.401Z,64.51
2023-05-19T21:17:41.378Z,64.77
2023-05-19T21:20:08.872Z,64.54
2023-05-19T21:22:36.139Z,64.03
2023-05-19T21:25:02.909Z,64.84
2023-05-19T21:27:31.936Z,66.28
2023-05-19T21:29:58.950Z,66.43
2023-05-19T21:32:25.980Z,66.62
2023-05-19T21:34:52.569Z,65.68
2023-05-19T21:37:20.374Z,66.68
2023-05-19T21:39:47.140Z,65.51
2023-05-19T21:42:13.874Z,64.50
2023-05-19T21:44:40.818Z,64.63
2023-05-19T21:47:10.445Z,64.02
2023-05-19T21:49:38.426Z,64.69
2023-05-19T21:52:05.610Z,63.96
2023-05-19T21:54:32.072Z,63.44
2023-05-19T21:56:58.653Z,63.75
2023-05-19T21:59:26.226Z,63.04
2023-05-19T22:01:52.897Z,62.87
2023-05-19T22:04:21.109Z,62.57
2023-05-19T22:06:47.845Z,62.58
2023-05-19T22:09:14.525Z,62.30
2023-05-19T22:11:41.566Z,61.94
2023-05-19T22:14:08.314Z,60.95
2023-05-19T22:16:35.265Z,61.06
2023-05-19T22:19:04.618Z,61.06
2023-05-19T22:21:32.023Z,61.57
2023-05-19T22:23:58.681Z,60.92
2023-05-19T22:26:27.724Z,61.54
2023-05-19T22:28:55.399Z,60.97
2023-05-19T22:31:22.531Z,59.59
2023-05-19T22:33:49.196Z,57.93
2023-05-19T22:36:16.671Z,60.46
2023-05-19T22:38:43.187Z,60.53
2023-05-19T22:41:09.814Z,60.36
2023-05-19T22:43:36.935Z,59.78
2023-05-19T22:46:03.628Z,60.16
2023-05-19T22:48:30.249Z,60.16
2023-05-19T22:50:56.975Z,58.92
2023-05-19T22:53:23.744Z,59.10
2023-05-19T22:55:50.446Z,58.73
2023-05-19T22:58:17.409Z,60.66
2023-05-19T23:00:44.208Z,61.24
2023-05-19T23:03:13.203Z,60.06
2023-05-19T23:05:40.509Z,60.67
2023-05-19T23:08:07.118Z,58.24
2023-05-19T23:10:33.881Z,60.96
2023-05-19T23:13:00.628Z,61.30
2023-05-19T23:15:27.255Z,60.43
2023-05-19T23:17:54.712Z,59.58
2023-05-19T23:20:21.346Z,59.99
2023-05-19T23:22:47.937Z,59.71
2023-05-19T23:25:14.667Z,60.39
2023-05-19T23:27:41.351Z,60.10
2023-05-19T23:30:08.715Z,59.51
2023-05-19T23:32:35.403Z,58.77
2023-05-19T23:35:16.802Z,58.58
2023-05-19T23:37:43.399Z,59.14
2023-05-19T23:40:10.372Z,59.50
2023-05-19T23:42:37.140Z,58.34
2023-05-19T23:45:04.733Z,58.94
2023-05-19T23:47:31.444Z,57.73
2023-05-19T23:50:00.919Z,59.70
2023-05-19T23:52:27.557Z,59.29
2023-05-19T23:54:54.161Z,59.49
2023-05-19T23:57:20.946Z,58.37
2023-05-19T23:59:47.652Z,58.91
